Thunder radar more information blitzortung!


Radar de pluja more information rain snow radar


Visita la nostra xarxa de llocs de meteo:

Template documentation
and downloads

And another site



Wind From: 11-12-2017 11:00 Until: 14:59 warning for: Wind Level: Yellow info button

Pagina Historial Weather Underground text

Diari Resum Juliol 5, 2017 Unitats:  Imperial    Mètric   Tant
« Previous Dia
SegĂźent Dia »
Diari Setmana Mensual Anual Personalitzada
  Maxima: Minima: Media:
Temperatura: 86.4 °F 61 °F 77 °F
Punt de rosada: 62.8 °F 50.7 °F 57.6 °F
Humitat: 81 % 33 % 53 %
Wind Speed: 13.8 mph 0 mph 5.4 mph
RĂ fegues de vent: 13.8 mph - -
Vent:- - ESE
Pression baro: 30.1 in 29.9 in -
Precipitacions: 0 in    
Historical Graphs
 
 
Dades de taula per Juliol 5, 2017
Temps Temperatura Punt de rosada Pression baro Vent Wind Speed RĂ fegues de vent Humitat Rainfall Rate (Hourly)
00:04 70.7 °F 52.7 °F 30 in Calm     53 % 0 in
00:05 61.7 °F 51.4 °F 30 in Calm     69 % 0 in
00:09 70.3 °F 52.3 °F 30 in Calm     53 % 0 in
00:15 61.9 °F 51.6 °F 30 in Calm   1 mph 69 % 0 in
00:25 61.9 °F 51.6 °F 30 in Calm   1 mph 69 % 0 in
00:35 61.7 °F 51.4 °F 30 in Calm     69 % 0 in
00:45 61.5 °F 51.3 °F 30 in Calm     69 % 0 in
00:55 61.3 °F 51.1 °F 30 in Calm     69 % 0 in
01:05 61 °F 50.7 °F 30 in Calm     69 % 0 in
01:15 61.2 °F 51.3 °F 30 in Calm     70 % 0 in
01:25 61.2 °F 51.3 °F 30 in Calm     70 % 0 in
01:35 61.5 °F 51.6 °F 30 in Calm   2 mph 70 % 0 in
01:45 61.7 °F 51.8 °F 30 in Calm   2 mph 70 % 0 in
01:55 61.9 °F 51.6 °F 30 in Calm     69 % 0 in
02:05 62.2 °F 52 °F 30 in NE 1 mph 1 mph 69 % 0 in
02:15 62.6 °F 52 °F 30 in Calm   1 mph 68 % 0 in
02:25 63.5 °F 52 °F 30 in ENE 2 mph 3 mph 66 % 0 in
02:35 62.1 °F 51.4 °F 30 in SW 2 mph 3 mph 68 % 0 in
02:45 62.2 °F 51.4 °F 30 in SW 1 mph 2 mph 68 % 0 in
02:55 63.9 °F 52.7 °F 30 in Calm   2 mph 67 % 0 in
03:05 66.2 °F 53.8 °F 30 in South 1 mph 2 mph 64 % 0 in
03:15 65.8 °F 53.2 °F 30 in Calm   2 mph 64 % 0 in
03:25 66.6 °F 53.1 °F 30 in SSW 2 mph 2 mph 62 % 0 in
03:35 66.2 °F 52.3 °F 30 in SW 1 mph 3 mph 61 % 0 in
03:45 66.9 °F 53.1 °F 30 in SW 2 mph 2 mph 61 % 0 in
03:55 68.4 °F 53.4 °F 30 in SW 1 mph 2 mph 59 % 0 in
04:05 71.2 °F 55.2 °F 30 in SW 1 mph 2 mph 57 % 0 in
04:15 73.4 °F 55.8 °F 30 in WNW 1 mph 2 mph 54 % 0 in
04:25 73.2 °F 55 °F 30 in NNE 2 mph 2 mph 53 % 0 in
04:35 74.8 °F 55.9 °F 30 in NNE 1 mph 3 mph 52 % 0 in
04:45 75.2 °F 55.2 °F 30 in NE 2 mph 3 mph 50 % 0 in
04:55 75.9 °F 55.9 °F 30 in ENE 1 mph 3 mph 50 % 0 in
05:05 76.1 °F 55.6 °F 30 in NE 2 mph 3 mph 49 % 0 in
05:15 77.7 °F 55.9 °F 30 in NE 1 mph 2 mph 47 % 0 in
05:25 78.3 °F 56.5 °F 30 in NNE 1 mph 2 mph 47 % 0 in
05:35 78.4 °F 55.2 °F 30 in SE 2 mph 4 mph 45 % 0 in
05:45 79.2 °F 54.7 °F 30 in SE 1 mph 3 mph 43 % 0 in
05:55 79.5 °F 55 °F 30 in ESE 3 mph 5 mph 43 % 0 in
06:05 81.5 °F 55.6 °F 30 in ESE 1 mph 3 mph 41 % 0 in
06:15 82.6 °F 55.8 °F 30 in SSE 1 mph 3 mph 40 % 0 in
11:15 82.6 °F 56.5 °F 30 in SE 3.8 mph 3.8 mph 41 % 0 in
11:20 81.9 °F 55.2 °F 30 in SSE 3.5 mph 3.5 mph 40 % 0 in
11:25 82.6 °F 55.8 °F 30 in WNW 2.3 mph 2.3 mph 40 % 0 in
11:30 82.8 °F 55.2 °F 30 in SSE 3.5 mph 3.5 mph 39 % 0 in
11:35 82.2 °F 54.9 °F 30 in NE 4.6 mph 4.6 mph 39 % 0 in
11:40 82.8 °F 53.8 °F 30 in East 4.6 mph 4.6 mph 37 % 0 in
11:45 82.9 °F 54.7 °F 30 in SW 4.6 mph 4.6 mph 38 % 0 in
11:50 84 °F 54.1 °F 30 in SE 4.6 mph 4.6 mph 36 % 0 in
11:55 83.8 °F 54.9 °F 30 in ESE 2.3 mph 2.4 mph 37 % 0 in
12:00 84.7 °F 54.1 °F 30 in ESE 3.5 mph 3.5 mph 35 % 0 in
12:05 84.6 °F 54 °F 30 in East 4.6 mph 4.6 mph 35 % 0 in
12:10 84.2 °F 52.9 °F 30 in NNE 5.8 mph 5.8 mph 34 % 0 in
12:15 84.6 °F 53.1 °F 30 in ESE 5.8 mph 5.8 mph 34 % 0 in
12:20 83.8 °F 53.2 °F 30 in NE 4.6 mph 4.6 mph 35 % 0 in
12:25 83.8 °F 52.5 °F 30 in WSW 8.1 mph 8.1 mph 34 % 0 in
12:30 84.4 °F 52.2 °F 30 in ENE 4.6 mph 4.6 mph 33 % 0 in
12:35 85.3 °F 53.8 °F 30 in North 2.3 mph 2.3 mph 34 % 0 in
12:40 86.4 °F 54 °F 30 in ENE 4 mph 4 mph 33 % 0 in
12:45 85.6 °F 54 °F 30 in ESE 5.8 mph 5.8 mph 34 % 0 in
12:50 84.7 °F 54.9 °F 30 in NE 8.1 mph 8.1 mph 36 % 0 in
12:55 84.7 °F 56.3 °F 30 in ENE 11.5 mph 11.5 mph 38 % 0 in
13:00 84.2 °F 56.7 °F 30 in ENE 6.9 mph 6.9 mph 39 % 0 in
13:01 84.4 °F 56.7 °F 30 in ESE 6.9 mph 6.9 mph 39 % 0 in
13:06 83.8 °F 57.6 °F 30 in ENE 8.1 mph 8.1 mph 41 % 0 in
13:11 84 °F 57.7 °F 30 in SSE 12.3 mph 12.3 mph 41 % 0 in
13:16 83.3 °F 57.7 °F 30 in NNE 6.9 mph 6.9 mph 42 % 0 in
13:21 83.7 °F 58.8 °F 30 in ESE 10.4 mph 10.4 mph 43 % 0 in
13:26 84.6 °F 58.8 °F 30 in East 7.8 mph 7.8 mph 42 % 0 in
13:31 84 °F 59.2 °F 30 in ESE 10.4 mph 10.4 mph 43 % 0 in
13:36 84 °F 59.2 °F 30 in ENE 8.1 mph 8.1 mph 43 % 0 in
13:41 83.8 °F 59 °F 30 in East 8.1 mph 8.1 mph 43 % 0 in
13:46 83.7 °F 58.8 °F 30 in NE 8.1 mph 8.1 mph 43 % 0 in
13:51 84.2 °F 58.6 °F 30 in ESE 5.8 mph 5.8 mph 42 % 0 in
13:56 83.8 °F 59 °F 30 in SE 8.1 mph 8.1 mph 43 % 0 in
14:01 84.2 °F 59.4 °F 30 in ENE 10.4 mph 10.4 mph 43 % 0 in
14:06 83.8 °F 59.5 °F 30 in ESE 8.5 mph 8.5 mph 44 % 0 in
14:11 83.5 °F 59.4 °F 30 in ESE 10.4 mph 10.4 mph 44 % 0 in
14:16 83.8 °F 59 °F 30 in ESE 10.4 mph 10.4 mph 43 % 0 in
14:21 84.2 °F 58.6 °F 30 in ESE 10.4 mph 10.4 mph 42 % 0 in
14:26 83.8 °F 59 °F 30 in ESE 8.1 mph 8.1 mph 43 % 0 in
14:31 84.2 °F 58.6 °F 30 in East 11.5 mph 11.5 mph 42 % 0 in
14:36 84.6 °F 58.8 °F 30 in East 13.8 mph 13.8 mph 42 % 0 in
14:41 84 °F 59.2 °F 30 in ESE 12.7 mph 12.7 mph 43 % 0 in
14:46 84.2 °F 58.6 °F 30 in ESE 6.9 mph 6.9 mph 42 % 0 in
14:51 84.7 °F 59.2 °F 30 in SE 10.7 mph 10.7 mph 42 % 0 in
14:56 84 °F 59.2 °F 30 in East 10.4 mph 10.4 mph 43 % 0 in
15:01 84.4 °F 58.8 °F 30 in ESE 9.2 mph 9.2 mph 42 % 0 in
15:06 83.8 °F 59 °F 30 in East 12.7 mph 12.7 mph 43 % 0 in
15:11 84.2 °F 58.6 °F 30 in ENE 10.4 mph 10.4 mph 42 % 0 in
15:16 84.2 °F 58.6 °F 30 in ENE 5.4 mph 5.4 mph 42 % 0 in
15:21 84.7 °F 59.2 °F 30 in ESE 12.7 mph 12.7 mph 42 % 0 in
15:26 84 °F 59.2 °F 30 in ESE 11.5 mph 11.5 mph 43 % 0 in
15:31 83.8 °F 59 °F 30 in ESE 10 mph 10 mph 43 % 0 in
15:36 84 °F 59.2 °F 30 in ESE 8.1 mph 8.1 mph 43 % 0 in
15:41 84.6 °F 58.3 °F 30 in ESE 8.7 mph 8.7 mph 41 % 0 in
15:46 83.7 °F 58.1 °F 30 in South 10.4 mph 10.4 mph 42 % 0 in
15:51 84.6 °F 58.3 °F 30 in ESE 7.6 mph 7.6 mph 41 % 0 in
15:57 84.2 °F 57.9 °F 30 in ESE 10.4 mph 10.4 mph 41 % 0 in
16:02 84.4 °F 58.1 °F 30 in ENE 8.1 mph 8.1 mph 41 % 0 in
16:07 84.6 °F 57.6 °F 30 in NE 10.2 mph 10.2 mph 40 % 0 in
16:12 83.8 °F 57.6 °F 30 in ESE 9.2 mph 9.2 mph 41 % 0 in
16:17 84.4 °F 57.4 °F 30 in ESE 9.2 mph 9.2 mph 40 % 0 in
16:22 84.6 °F 56.8 °F 30 in East 5.8 mph 5.8 mph 39 % 0 in
16:27 83.7 °F 56.8 °F 30 in ESE 5.8 mph 5.8 mph 40 % 0 in
16:32 84.2 °F 55.8 °F 30 in ESE 11.5 mph 11.5 mph 38 % 0 in
16:37 84.2 °F 55.8 °F 30 in ESE 8.1 mph 8.1 mph 38 % 0 in
16:42 84.6 °F 56.1 °F 30 in ESE 5.4 mph 5.4 mph 38 % 0 in
16:47 84.4 °F 55.9 °F 30 in SSE 10.4 mph 10.4 mph 38 % 0 in
16:52 84.2 °F 55.8 °F 30 in South 11.5 mph 11.5 mph 38 % 0 in
16:57 84.6 °F 56.1 °F 30 in NNE 6.9 mph 6.9 mph 38 % 0 in
17:02 84.2 °F 55.8 °F 30 in ESE 9.2 mph 9.2 mph 38 % 0 in
17:07 84.2 °F 55.8 °F 30 in SE 5.8 mph 6 mph 38 % 0 in
17:12 84 °F 56.5 °F 30 in SE 5.8 mph 5.8 mph 39 % 0 in
17:17 84 °F 56.5 °F 30 in East 6.9 mph 6.9 mph 39 % 0 in
17:22 84.2 °F 55.8 °F 30 in ENE 8.5 mph 8.5 mph 38 % 0 in
17:23 83.8 °F 56.1 °F 30 in ESE 8.1 mph 8.1 mph 39 % 0 in
17:28 83.1 °F 55.6 °F 29.9 in ESE 12.7 mph 12.7 mph 39 % 0 in
17:33 83.1 °F 55.6 °F 29.9 in ESE 9.2 mph 9.2 mph 39 % 0 in
17:38 83.8 °F 56.1 °F 29.9 in ESE 6.9 mph 6.9 mph 39 % 0 in
17:43 83.7 °F 56.1 °F 29.9 in ESE 11.5 mph 11.5 mph 39 % 0 in
17:44 83.3 °F 55.8 °F 29.9 in ESE 11.8 mph 11.8 mph 39 % 0 in
17:49 82.6 °F 55.8 °F 29.9 in ESE 10.5 mph 10.5 mph 40 % 0 in
17:54 82.8 °F 56.7 °F 29.9 in ESE 8.5 mph 8.5 mph 41 % 0 in
17:59 82.9 °F 56.8 °F 29.9 in East 8.1 mph 8.1 mph 41 % 0 in
18:04 82.4 °F 56.3 °F 29.9 in ESE 10.4 mph 10.4 mph 41 % 0 in
18:09 82.6 °F 56.5 °F 29.9 in ENE 8.1 mph 8.1 mph 41 % 0 in
18:14 82.9 °F 57.6 °F 29.9 in SSE 8.1 mph 8.1 mph 42 % 0 in
18:19 82.2 °F 56.8 °F 29.9 in East 12.7 mph 12.7 mph 42 % 0 in
18:24 81.7 °F 55.8 °F 29.9 in SE 11.5 mph 11.5 mph 41 % 0 in
18:29 81.9 °F 57.2 °F 29.9 in ESE 9.2 mph 9.2 mph 43 % 0 in
18:34 81.9 °F 56.5 °F 29.9 in ESE 10.4 mph 10.4 mph 42 % 0 in
18:35 81.9 °F 56.5 °F 29.9 in NNE 10.4 mph 10.4 mph 42 % 0 in
18:40 81.3 °F 56.7 °F 29.9 in ESE 6.9 mph 6.9 mph 43 % 0 in
18:45 81.7 °F 57.6 °F 29.9 in ESE 5.8 mph 5.9 mph 44 % 0 in
18:50 81.3 °F 57.4 °F 29.9 in East 6.9 mph 6.9 mph 44 % 0 in
18:55 81.3 °F 57.4 °F 29.9 in ESE 8.1 mph 8.1 mph 44 % 0 in
19:00 80.8 °F 56.8 °F 29.9 in ESE 8.1 mph 8.1 mph 44 % 0 in
19:05 80.8 °F 57.6 °F 29.9 in ESE 9.2 mph 9.2 mph 45 % 0 in
19:10 80.6 °F 57.4 °F 29.9 in ESE 8.1 mph 8.1 mph 45 % 0 in
19:15 80.6 °F 57.4 °F 29.9 in ESE 8.1 mph 8.1 mph 45 % 0 in
19:20 80.6 °F 57.9 °F 29.9 in ESE 5.8 mph 5.8 mph 46 % 0 in
19:25 80.2 °F 58.3 °F 29.9 in ESE 6.9 mph 6.9 mph 47 % 0 in
19:30 80.1 °F 58.6 °F 29.9 in East 8.1 mph 8.1 mph 48 % 0 in
19:35 79.9 °F 58.5 °F 29.9 in ESE 10.7 mph 10.7 mph 48 % 0 in
19:40 79.7 °F 58.8 °F 29.9 in ENE 8.1 mph 8.1 mph 49 % 0 in
19:45 79.3 °F 58.5 °F 29.9 in ESE 8.1 mph 8.1 mph 49 % 0 in
19:50 79.2 °F 58.8 °F 29.9 in ESE 10.4 mph 10.4 mph 50 % 0 in
19:55 78.8 °F 58.6 °F 29.9 in ENE 6.9 mph 6.9 mph 50 % 0 in
20:00 79 °F 59.4 °F 29.9 in ESE 8.1 mph 8.1 mph 51 % 0 in
20:05 78.6 °F 59 °F 29.9 in ENE 9.2 mph 9.2 mph 51 % 0 in
20:10 78.4 °F 59.4 °F 29.9 in ESE 7.4 mph 7.4 mph 52 % 0 in
20:15 78.1 °F 59.5 °F 29.9 in ESE 9.2 mph 9.2 mph 53 % 0 in
20:16 78.1 °F 59.5 °F 29.9 in East 9.2 mph 9.2 mph 53 % 0 in
20:21 77.9 °F 59.9 °F 29.9 in East 8.1 mph 8.1 mph 54 % 0 in
20:25 69.3 °F 61.3 °F 30 in NW 2 mph 2 mph 76 % 0 in
20:26 77.9 °F 59.9 °F 30 in ENE 5.8 mph 5.8 mph 54 % 0 in
20:31 77.7 °F 59.7 °F 30 in ENE 6.9 mph 6.9 mph 54 % 0 in
20:35 69.3 °F 61.7 °F 30.1 in WNW 1 mph 2 mph 77 % 0 in
20:36 77.5 °F 60.1 °F 30 in East 8.1 mph 8.1 mph 55 % 0 in
20:41 77.2 °F 59.7 °F 30 in ESE 5.8 mph 5.9 mph 55 % 0 in
20:45 69.1 °F 61.9 °F 30.1 in Calm   1 mph 78 % 0 in
20:46 77 °F 60.1 °F 30 in ESE 5.4 mph 5.4 mph 56 % 0 in
20:51 76.6 °F 60.8 °F 30 in ENE 8.1 mph 8.1 mph 58 % 0 in
20:55 69.1 °F 61.9 °F 30.1 in Calm   2 mph 78 % 0 in
20:56 76.3 °F 61 °F 30 in SE 8.1 mph 8.1 mph 59 % 0 in
21:01 75.9 °F 61 °F 30 in ESE 9.2 mph 9.2 mph 60 % 0 in
21:05 69.1 °F 61.9 °F 30 in Calm   1 mph 78 % 0 in
21:06 75.7 °F 61.3 °F 30 in ESE 6.9 mph 6.9 mph 61 % 0 in
21:11 75.6 °F 61.5 °F 30 in ESE 6.9 mph 6.9 mph 62 % 0 in
21:15 69.1 °F 62.2 °F 30.1 in NNE 1 mph 2 mph 79 % 0 in
21:16 75.2 °F 61.3 °F 30 in ENE 5.8 mph 5.8 mph 62 % 0 in
21:21 74.8 °F 61.3 °F 30 in ENE 6.9 mph 6.9 mph 63 % 0 in
21:25 68.9 °F 61.9 °F 30.1 in Calm   2 mph 78 % 0 in
21:26 74.7 °F 61.7 °F 30 in ESE 6.9 mph 6.9 mph 64 % 0 in
21:31 74.5 °F 61.2 °F 30 in ENE 5.8 mph 5.8 mph 63 % 0 in
21:35 68 °F 61 °F 30 in Calm   1 mph 78 % 0 in
21:36 74.3 °F 61.3 °F 30 in ENE 5.8 mph 5.8 mph 64 % 0 in
21:41 73.9 °F 61 °F 30 in East 4.6 mph 4.6 mph 64 % 0 in
21:45 67.8 °F 61.2 °F 30 in Calm   1 mph 79 % 0 in
21:46 73.8 °F 61.3 °F 30 in NNE 5.8 mph 5.8 mph 65 % 0 in
21:51 73.6 °F 61.2 °F 30 in East 2.3 mph 2.3 mph 65 % 0 in
21:55 67.8 °F 61.3 °F 30 in SE 1 mph 2 mph 80 % 0 in
21:56 73.6 °F 61.9 °F 30 in ESE 5.8 mph 5.8 mph 67 % 0 in
22:01 73.4 °F 61.9 °F 30 in NE 6.9 mph 6.9 mph 67 % 0 in
22:05 67.6 °F 61.2 °F 30 in ENE 1 mph 2 mph 80 % 0 in
22:06 73.4 °F 62.2 °F 30 in East 5.8 mph 5.8 mph 68 % 0 in
22:11 73.2 °F 62.1 °F 30 in ESE 5.8 mph 5.8 mph 68 % 0 in
22:15 67.5 °F 60.6 °F 30 in NE 2 mph 2 mph 79 % 0 in
22:16 73 °F 61.9 °F 30 in East 5.8 mph 5.8 mph 68 % 0 in
22:21 72.9 °F 61.7 °F 30 in ESE 3.5 mph 3.5 mph 68 % 0 in
22:25 67.1 °F 60.4 °F 30 in NNW 1 mph 2 mph 79 % 0 in
22:26 72.7 °F 61.5 °F 30 in ESE 3.1 mph 3.1 mph 68 % 0 in
22:31 72.5 °F 61.7 °F 30 in ENE 3.5 mph 3.5 mph 69 % 0 in
22:35 67.1 °F 60.1 °F 30 in WNW 1 mph 1 mph 78 % 0 in
22:36 72.7 °F 62.2 °F 30 in East 6.9 mph 6.9 mph 70 % 0 in
22:41 72.5 °F 61.7 °F 30 in ENE 3.5 mph 3.5 mph 69 % 0 in
22:45 67.5 °F 60.4 °F 30 in North 1 mph 2 mph 78 % 0 in
22:46 72.3 °F 61.5 °F 30 in ENE 3.5 mph 3.5 mph 69 % 0 in
22:51 72.1 °F 61.9 °F 30 in NE 2.3 mph 2.3 mph 70 % 0 in
22:55 66.6 °F 59.2 °F 30 in WSW 3 mph 3 mph 77 % 0 in
22:56 72 °F 61.2 °F 30 in NNE 2.3 mph 2.3 mph 69 % 0 in
23:01 72 °F 61.5 °F 30 in East 2.3 mph 2.4 mph 70 % 0 in
23:05 66.4 °F 59.4 °F 30 in WSW 1 mph 4 mph 78 % 0 in
23:06 71.8 °F 61.5 °F 30 in NE 3.5 mph 3.5 mph 70 % 0 in
23:11 71.6 °F 61.3 °F 30 in East 2.3 mph 2.3 mph 70 % 0 in
23:15 66.6 °F 59.7 °F 30 in WSW 1 mph 2 mph 79 % 0 in
23:16 71.6 °F 61.7 °F 30 in East 2.3 mph 2.3 mph 71 % 0 in
23:21 71.4 °F 62.2 °F 30 in East 3.1 mph 3.1 mph 73 % 0 in
23:25 66 °F 59.4 °F 30 in WSW 1 mph 2 mph 79 % 0 in
23:26 71.4 °F 62.8 °F 30 in East 3.6 mph 3.6 mph 74 % 0 in
23:31 71.2 °F 62.4 °F 30 in ENE 3.5 mph 3.5 mph 74 % 0 in
23:35 66 °F 60.1 °F 30 in Calm   1 mph 81 % 0 in
23:36 71.1 °F 62.4 °F 30 in NE 2.3 mph 2.3 mph 74 % 0 in
23:41 71.1 °F 62.4 °F 30 in NNE 2.3 mph 2.3 mph 74 % 0 in
23:45 66.2 °F 59.2 °F 30 in NE 1 mph 2 mph 78 % 0 in
23:46 71.1 °F 62.4 °F 30 in NE 1.6 mph 1.6 mph 74 % 0 in
23:51 70.9 °F 62.6 °F 30 in East 2.3 mph 2.3 mph 75 % 0 in
23:55 65.8 °F 58.8 °F 30 in NE 3 mph 4 mph 78 % 0 in
23:56 70.7 °F 62.4 °F 30 in Calm     75 % 0 in
Meteo Sesrovires
Elogis d' Weather Underground - 3.75 mb

Guio original per  Jim McMurry - jmcmurry@mwt.net Adaptat per a la plantilla per  Wim van der Kuil - Leuven-Template.eu

Trobareu la nostra informacio del temps tambe a:

Weather Underground

AWEKAS